CST,Max TemperatureF,Mean TemperatureF,Min TemperatureF,Max Dew PointF,MeanDew PointF,Min DewpointF,Max Humidity, Mean Humidity, Min Humidity, Max Sea Level PressureIn, Mean Sea Level PressureIn, Min Sea Level PressureIn, Max VisibilityMiles, Mean VisibilityMiles, Min VisibilityMiles, Max Wind SpeedMPH, Mean Wind SpeedMPH, Max Gust SpeedMPH,PrecipitationIn, CloudCover, Events, WindDirDegrees
2014-2-1,74,63,51,64,60,50,100,84,68,29.99,29.96,29.92,10,8,2,20,11,27,0.00,6,,151
2014-2-2,71,56,41,69,59,38,100,95,89,30.12,29.96,29.85,10,5,0,21,11,29,0.29,8,Fog-Rain,141
2014-2-3,53,46,39,42,39,36,93,82,71,30.24,30.14,30.08,10,10,9,22,15,28,0.00,7,,40
2014-2-4,65,53,41,63,49,40,100,95,89,30.11,29.92,29.79,10,5,1,21,10,26,0.71,8,Rain,48
2014-2-5,49,43,37,39,35,29,92,76,60,30.39,30.29,30.12,10,10,10,24,13,30,0.00,3,,10
2014-2-6,43,38,32,30,27,26,85,69,53,30.48,30.39,30.34,10,10,10,22,13,28,T,6,,20
2014-2-7,41,37,32,34,29,27,82,71,60,30.39,30.32,30.25,10,10,10,25,11,31,T,8,Rain,41
2014-2-8,55,47,38,47,41,33,93,82,71,30.28,30.21,30.14,10,10,5,14,5,17,T,8,Rain,100
2014-2-9,61,52,43,56,51,43,100,89,78,30.19,30.11,30.06,10,6,0,9,3,12,T,8,Fog-Rain,161
2014-2-10,59,48,37,58,48,35,100,96,92,30.14,30.08,30.03,10,3,0,23,10,29,0.14,8,Fog-Rain,50
2014-2-11,37,36,34,35,34,33,100,93,85,30.22,30.13,30.05,10,7,2,22,14,28,1.29,8,Rain-Thunderstorm,20
2014-2-12,40,36,31,34,33,29,100,90,79,30.13,30.09,30.04,10,9,2,17,10,23,0.01,7,Rain,355
2014-2-13,55,42,28,39,33,26,100,71,41,30.16,30.08,30.02,10,9,5,14,4,21,0.00,0,,192
2014-2-14,69,52,35,59,43,34,100,71,42,30.06,29.95,29.84,10,5,0,22,8,31,0.00,5,Fog,190
2014-2-15,65,51,37,41,36,31,96,63,30,30.25,30.17,30.08,10,10,10,16,5,19,0.00,0,,67
2014-2-16,73,58,42,60,54,41,100,83,66,30.17,30.12,30.08,10,9,2,13,6,18,0.00,5,,153
2014-2-17,75,69,62,66,62,57,100,87,73,30.15,30.10,30.04,10,10,7,18,10,25,0.00,8,,203
2014-2-18,75,68,60,65,62,60,100,84,68,30.15,30.09,30.02,10,5,0,18,8,25,0.00,6,Fog,196
2014-2-19,76,70,64,66,64,62,100,82,64,30.06,29.99,29.90,10,6,0,17,9,25,0.00,7,Fog,183
2014-2-20,76,68,60,68,65,48,100,85,69,30.03,29.87,29.80,10,7,1,23,12,34,0.49,8,Rain-Thunderstorm,200
2014-2-21,65,55,44,43,34,23,86,54,21,30.19,30.14,30.06,10,10,10,28,8,36,T,0,,57
2014-2-22,69,56,43,59,45,35,92,62,32,30.14,30.06,29.98,10,10,5,20,6,23,T,2,Rain,124
2014-2-23,70,65,60,67,63,58,100,95,90,30.04,29.98,29.93,10,5,0,8,3,9,0.47,8,Fog-Rain-Thunderstorm,69
2014-2-24,65,61,56,63,58,52,100,89,78,30.16,30.07,30.00,10,7,0,18,7,24,T,8,Fog,51
2014-2-25,68,62,55,64,59,54,100,94,87,30.11,30.03,29.94,9,5,0,14,6,16,0.20,8,Fog-Rain-Thunderstorm,74
2014-2-26,55,48,41,54,42,32,100,83,65,30.17,30.05,29.93,10,9,2,24,14,31,0.90,6,Rain-Thunderstorm,13
2014-2-27,55,44,33,38,31,26,92,64,35,30.22,30.12,30.05,10,10,10,10,5,14,0.00,0,,56
2014-2-28,62,50,38,58,50,36,93,81,69,30.05,29.99,29.91,10,10,10,21,8,27,T,6,Rain,161